sensor_id;sensor_type;location;lat;lon;timestamp;P1;durP1;ratioP1;P2;durP2;ratioP2
33076;SDS011;38790;51.964;5.924;2022-11-15T00:00:48;74.10;;;33.58;;
33076;SDS011;38790;51.964;5.924;2022-11-15T00:03:19;70.28;;;32.75;;
33076;SDS011;38790;51.964;5.924;2022-11-15T00:05:47;75.07;;;31.98;;
33076;SDS011;38790;51.964;5.924;2022-11-15T00:08:14;81.38;;;33.30;;
33076;SDS011;38790;51.964;5.924;2022-11-15T00:10:40;69.03;;;33.10;;
33076;SDS011;38790;51.964;5.924;2022-11-15T00:13:07;73.18;;;34.92;;
33076;SDS011;38790;51.964;5.924;2022-11-15T00:15:38;65.93;;;32.33;;
33076;SDS011;38790;51.964;5.924;2022-11-15T00:18:05;59.75;;;31.67;;
33076;SDS011;38790;51.964;5.924;2022-11-15T00:20:35;66.30;;;32.88;;
33076;SDS011;38790;51.964;5.924;2022-11-15T00:23:02;61.90;;;32.83;;
33076;SDS011;38790;51.964;5.924;2022-11-15T00:25:29;70.95;;;32.90;;
33076;SDS011;38790;51.964;5.924;2022-11-15T00:27:56;60.08;;;32.65;;
33076;SDS011;38790;51.964;5.924;2022-11-15T00:30:26;81.78;;;31.95;;
33076;SDS011;38790;51.964;5.924;2022-11-15T00:32:53;68.60;;;33.58;;
33076;SDS011;38790;51.964;5.924;2022-11-15T00:35:20;59.35;;;29.67;;
33076;SDS011;38790;51.964;5.924;2022-11-15T00:37:48;54.78;;;30.48;;
33076;SDS011;38790;51.964;5.924;2022-11-15T00:40:15;66.57;;;32.80;;
33076;SDS011;38790;51.964;5.924;2022-11-15T00:42:41;74.95;;;34.05;;
33076;SDS011;38790;51.964;5.924;2022-11-15T00:45:08;66.05;;;33.75;;
33076;SDS011;38790;51.964;5.924;2022-11-15T00:47:34;62.22;;;31.80;;
33076;SDS011;38790;51.964;5.924;2022-11-15T00:50:00;56.53;;;32.03;;
33076;SDS011;38790;51.964;5.924;2022-11-15T00:52:27;66.15;;;32.25;;
33076;SDS011;38790;51.964;5.924;2022-11-15T00:54:53;78.38;;;32.78;;
33076;SDS011;38790;51.964;5.924;2022-11-15T00:57:19;81.70;;;33.75;;
33076;SDS011;38790;51.964;5.924;2022-11-15T00:59:45;55.35;;;30.70;;
33076;SDS011;38790;51.964;5.924;2022-11-15T01:02:11;60.38;;;31.95;;
33076;SDS011;38790;51.964;5.924;2022-11-15T01:04:37;68.82;;;31.23;;
33076;SDS011;38790;51.964;5.924;2022-11-15T01:07:03;61.40;;;33.03;;
33076;SDS011;38790;51.964;5.924;2022-11-15T01:09:29;65.13;;;33.70;;
33076;SDS011;38790;51.964;5.924;2022-11-15T01:11:56;65.82;;;33.63;;
33076;SDS011;38790;51.964;5.924;2022-11-15T01:14:22;78.85;;;34.50;;
33076;SDS011;38790;51.964;5.924;2022-11-15T01:16:48;65.55;;;34.08;;
33076;SDS011;38790;51.964;5.924;2022-11-15T01:19:14;67.40;;;33.15;;
33076;SDS011;38790;51.964;5.924;2022-11-15T01:21:40;60.75;;;33.10;;
33076;SDS011;38790;51.964;5.924;2022-11-15T01:24:07;68.38;;;33.50;;
33076;SDS011;38790;51.964;5.924;2022-11-15T01:26:33;67.18;;;34.33;;
33076;SDS011;38790;51.964;5.924;2022-11-15T01:28:59;76.38;;;35.65;;
33076;SDS011;38790;51.964;5.924;2022-11-15T01:31:25;65.22;;;35.40;;
33076;SDS011;38790;51.964;5.924;2022-11-15T01:33:52;70.35;;;34.70;;
33076;SDS011;38790;51.964;5.924;2022-11-15T01:36:18;72.35;;;35.60;;
33076;SDS011;38790;51.964;5.924;2022-11-15T01:38:53;70.40;;;36.92;;
33076;SDS011;38790;51.964;5.924;2022-11-15T01:41:21;74.22;;;35.83;;
33076;SDS011;38790;51.964;5.924;2022-11-15T01:43:54;84.00;;;37.33;;
33076;SDS011;38790;51.964;5.924;2022-11-15T01:48:54;73.78;;;35.20;;
33076;SDS011;38790;51.964;5.924;2022-11-15T01:51:26;72.57;;;36.75;;
33076;SDS011;38790;51.964;5.924;2022-11-15T01:54:05;87.00;;;36.10;;
33076;SDS011;38790;51.964;5.924;2022-11-15T01:56:37;77.47;;;35.88;;
33076;SDS011;38790;51.964;5.924;2022-11-15T01:59:11;71.75;;;36.05;;
33076;SDS011;38790;51.964;5.924;2022-11-15T02:01:38;65.82;;;34.35;;
33076;SDS011;38790;51.964;5.924;2022-11-15T02:04:06;76.90;;;35.65;;
33076;SDS011;38790;51.964;5.924;2022-11-15T02:06:42;69.97;;;36.22;;
33076;SDS011;38790;51.964;5.924;2022-11-15T02:09:09;68.38;;;36.00;;
33076;SDS011;38790;51.964;5.924;2022-11-15T02:11:36;69.68;;;35.42;;
33076;SDS011;38790;51.964;5.924;2022-11-15T02:14:03;64.80;;;35.80;;
33076;SDS011;38790;51.964;5.924;2022-11-15T02:16:51;65.25;;;35.05;;
33076;SDS011;38790;51.964;5.924;2022-11-15T02:33:37;69.85;;;33.95;;
33076;SDS011;38790;51.964;5.924;2022-11-15T02:36:31;66.28;;;34.30;;
33076;SDS011;38790;51.964;5.924;2022-11-15T02:39:08;64.68;;;34.83;;
33076;SDS011;38790;51.964;5.924;2022-11-15T02:41:54;68.32;;;34.70;;
33076;SDS011;38790;51.964;5.924;2022-11-15T02:45:08;66.55;;;35.53;;
33076;SDS011;38790;51.964;5.924;2022-11-15T02:47:43;83.43;;;35.40;;
33076;SDS011;38790;51.964;5.924;2022-11-15T02:50:12;64.22;;;34.20;;
33076;SDS011;38790;51.964;5.924;2022-11-15T02:52:44;59.90;;;35.63;;
33076;SDS011;38790;51.964;5.924;2022-11-15T02:55:26;69.50;;;35.08;;
33076;SDS011;38790;51.964;5.924;2022-11-15T03:00:55;57.60;;;34.90;;
33076;SDS011;38790;51.964;5.924;2022-11-15T03:06:22;57.47;;;32.90;;
33076;SDS011;38790;51.964;5.924;2022-11-15T03:09:03;64.15;;;32.85;;
33076;SDS011;38790;51.964;5.924;2022-11-15T03:11:35;53.13;;;33.78;;
33076;SDS011;38790;51.964;5.924;2022-11-15T03:14:20;60.95;;;32.45;;
33076;SDS011;38790;51.964;5.924;2022-11-15T03:19:45;56.28;;;34.10;;
33076;SDS011;38790;51.964;5.924;2022-11-15T03:22:15;56.63;;;34.55;;
33076;SDS011;38790;51.964;5.924;2022-11-15T03:24:45;61.78;;;34.20;;
33076;SDS011;38790;51.964;5.924;2022-11-15T03:27:17;65.80;;;36.22;;
33076;SDS011;38790;51.964;5.924;2022-11-15T03:29:50;66.70;;;35.17;;
33076;SDS011;38790;51.964;5.924;2022-11-15T03:32:22;58.22;;;35.17;;
33076;SDS011;38790;51.964;5.924;2022-11-15T03:37:45;64.15;;;34.63;;
33076;SDS011;38790;51.964;5.924;2022-11-15T03:40:38;64.47;;;36.40;;
33076;SDS011;38790;51.964;5.924;2022-11-15T03:43:15;60.58;;;34.45;;
33076;SDS011;38790;51.964;5.924;2022-11-15T03:46:14;56.25;;;34.38;;
33076;SDS011;38790;51.964;5.924;2022-11-15T03:48:52;62.92;;;35.60;;
33076;SDS011;38790;51.964;5.924;2022-11-15T03:53:56;59.80;;;34.70;;
33076;SDS011;38790;51.964;5.924;2022-11-15T03:56:22;53.45;;;34.42;;
33076;SDS011;38790;51.964;5.924;2022-11-15T03:58:48;63.00;;;36.47;;
33076;SDS011;38790;51.964;5.924;2022-11-15T04:01:14;76.78;;;35.17;;
33076;SDS011;38790;51.964;5.924;2022-11-15T04:03:40;61.13;;;33.75;;
33076;SDS011;38790;51.964;5.924;2022-11-15T04:06:06;65.03;;;36.17;;
33076;SDS011;38790;51.964;5.924;2022-11-15T04:08:32;66.45;;;36.72;;
33076;SDS011;38790;51.964;5.924;2022-11-15T04:10:58;65.15;;;36.20;;
33076;SDS011;38790;51.964;5.924;2022-11-15T04:13:24;66.45;;;36.22;;
33076;SDS011;38790;51.964;5.924;2022-11-15T04:15:51;72.05;;;37.17;;
33076;SDS011;38790;51.964;5.924;2022-11-15T04:18:17;77.05;;;36.67;;
33076;SDS011;38790;51.964;5.924;2022-11-15T04:20:43;71.32;;;38.15;;
33076;SDS011;38790;51.964;5.924;2022-11-15T04:23:27;76.78;;;38.88;;
33076;SDS011;38790;51.964;5.924;2022-11-15T04:26:13;75.20;;;37.58;;
33076;SDS011;38790;51.964;5.924;2022-11-15T04:28:41;74.90;;;38.58;;
33076;SDS011;38790;51.964;5.924;2022-11-15T04:31:26;68.40;;;36.75;;
33076;SDS011;38790;51.964;5.924;2022-11-15T04:33:53;70.10;;;36.78;;
33076;SDS011;38790;51.964;5.924;2022-11-15T04:36:19;69.25;;;37.40;;
33076;SDS011;38790;51.964;5.924;2022-11-15T04:39:04;72.97;;;37.20;;
33076;SDS011;38790;51.964;5.924;2022-11-15T04:41:31;68.80;;;34.55;;
33076;SDS011;38790;51.964;5.924;2022-11-15T04:43:57;74.35;;;36.90;;
33076;SDS011;38790;51.964;5.924;2022-11-15T04:46:23;63.33;;;35.97;;
33076;SDS011;38790;51.964;5.924;2022-11-15T04:48:50;69.00;;;36.13;;
33076;SDS011;38790;51.964;5.924;2022-11-15T04:51:17;71.57;;;36.17;;
33076;SDS011;38790;51.964;5.924;2022-11-15T04:53:43;65.38;;;35.58;;
33076;SDS011;38790;51.964;5.924;2022-11-15T04:56:10;60.55;;;35.28;;
33076;SDS011;38790;51.964;5.924;2022-11-15T04:58:36;68.47;;;35.53;;
33076;SDS011;38790;51.964;5.924;2022-11-15T05:03:35;56.92;;;35.00;;
33076;SDS011;38790;51.964;5.924;2022-11-15T05:06:19;72.53;;;35.47;;
33076;SDS011;38790;51.964;5.924;2022-11-15T05:08:45;59.28;;;34.35;;
33076;SDS011;38790;51.964;5.924;2022-11-15T05:11:12;66.47;;;34.10;;
33076;SDS011;38790;51.964;5.924;2022-11-15T05:13:38;58.83;;;32.33;;
33076;SDS011;38790;51.964;5.924;2022-11-15T05:16:04;57.05;;;32.55;;
33076;SDS011;38790;51.964;5.924;2022-11-15T05:18:30;54.67;;;33.83;;
33076;SDS011;38790;51.964;5.924;2022-11-15T05:21:02;70.55;;;33.50;;
33076;SDS011;38790;51.964;5.924;2022-11-15T05:23:36;63.42;;;35.25;;
33076;SDS011;38790;51.964;5.924;2022-11-15T05:26:03;76.25;;;33.60;;
33076;SDS011;38790;51.964;5.924;2022-11-15T05:28:31;67.47;;;35.88;;
33076;SDS011;38790;51.964;5.924;2022-11-15T05:31:04;62.35;;;33.17;;
33076;SDS011;38790;51.964;5.924;2022-11-15T05:33:33;60.53;;;33.20;;
33076;SDS011;38790;51.964;5.924;2022-11-15T05:36:07;65.95;;;34.55;;
33076;SDS011;38790;51.964;5.924;2022-11-15T05:38:40;62.78;;;35.03;;
33076;SDS011;38790;51.964;5.924;2022-11-15T05:41:12;67.60;;;34.22;;
33076;SDS011;38790;51.964;5.924;2022-11-15T05:43:40;68.38;;;34.60;;
33076;SDS011;38790;51.964;5.924;2022-11-15T05:46:07;65.43;;;34.17;;
33076;SDS011;38790;51.964;5.924;2022-11-15T05:48:34;64.20;;;36.03;;
33076;SDS011;38790;51.964;5.924;2022-11-15T05:51:02;59.58;;;33.00;;
33076;SDS011;38790;51.964;5.924;2022-11-15T05:53:30;63.40;;;31.73;;
33076;SDS011;38790;51.964;5.924;2022-11-15T05:55:57;63.85;;;33.90;;
33076;SDS011;38790;51.964;5.924;2022-11-15T05:58:23;62.47;;;33.60;;
33076;SDS011;38790;51.964;5.924;2022-11-15T06:00:50;58.33;;;34.40;;
33076;SDS011;38790;51.964;5.924;2022-11-15T06:03:16;58.47;;;33.42;;
33076;SDS011;38790;51.964;5.924;2022-11-15T06:05:42;59.35;;;33.38;;
33076;SDS011;38790;51.964;5.924;2022-11-15T06:08:08;62.45;;;33.78;;
33076;SDS011;38790;51.964;5.924;2022-11-15T06:10:43;65.35;;;34.13;;
33076;SDS011;38790;51.964;5.924;2022-11-15T06:13:09;60.60;;;33.47;;
33076;SDS011;38790;51.964;5.924;2022-11-15T06:15:36;66.95;;;34.67;;
33076;SDS011;38790;51.964;5.924;2022-11-15T06:18:02;58.35;;;33.15;;
33076;SDS011;38790;51.964;5.924;2022-11-15T06:20:28;62.05;;;32.38;;
33076;SDS011;38790;51.964;5.924;2022-11-15T06:23:02;53.83;;;32.45;;
33076;SDS011;38790;51.964;5.924;2022-11-15T06:25:29;62.92;;;32.20;;
33076;SDS011;38790;51.964;5.924;2022-11-15T06:27:57;62.20;;;33.30;;
33076;SDS011;38790;51.964;5.924;2022-11-15T06:30:24;55.83;;;32.22;;
33076;SDS011;38790;51.964;5.924;2022-11-15T06:32:51;54.45;;;34.13;;
33076;SDS011;38790;51.964;5.924;2022-11-15T06:35:23;57.08;;;34.10;;
33076;SDS011;38790;51.964;5.924;2022-11-15T06:37:50;67.70;;;34.20;;
33076;SDS011;38790;51.964;5.924;2022-11-15T06:40:16;57.75;;;32.88;;
33076;SDS011;38790;51.964;5.924;2022-11-15T06:42:42;62.28;;;32.88;;
33076;SDS011;38790;51.964;5.924;2022-11-15T06:45:08;63.55;;;32.95;;
33076;SDS011;38790;51.964;5.924;2022-11-15T06:47:34;60.38;;;33.50;;
33076;SDS011;38790;51.964;5.924;2022-11-15T06:50:00;61.70;;;33.55;;
33076;SDS011;38790;51.964;5.924;2022-11-15T06:52:27;63.00;;;34.10;;
33076;SDS011;38790;51.964;5.924;2022-11-15T06:54:57;56.25;;;33.40;;
33076;SDS011;38790;51.964;5.924;2022-11-15T06:57:24;59.55;;;34.97;;
33076;SDS011;38790;51.964;5.924;2022-11-15T06:59:50;70.82;;;36.90;;
33076;SDS011;38790;51.964;5.924;2022-11-15T07:02:16;60.30;;;34.88;;
33076;SDS011;38790;51.964;5.924;2022-11-15T07:04:42;61.17;;;34.88;;
33076;SDS011;38790;51.964;5.924;2022-11-15T07:07:09;62.72;;;36.45;;
33076;SDS011;38790;51.964;5.924;2022-11-15T07:09:35;65.80;;;35.13;;
33076;SDS011;38790;51.964;5.924;2022-11-15T07:12:01;61.92;;;36.58;;
33076;SDS011;38790;51.964;5.924;2022-11-15T07:14:27;55.65;;;34.08;;
33076;SDS011;38790;51.964;5.924;2022-11-15T07:16:53;61.78;;;35.38;;
33076;SDS011;38790;51.964;5.924;2022-11-15T07:19:20;65.20;;;36.72;;
33076;SDS011;38790;51.964;5.924;2022-11-15T07:21:46;66.03;;;36.10;;
33076;SDS011;38790;51.964;5.924;2022-11-15T07:24:12;61.60;;;34.75;;
33076;SDS011;38790;51.964;5.924;2022-11-15T07:26:38;61.15;;;34.33;;
33076;SDS011;38790;51.964;5.924;2022-11-15T07:29:04;65.20;;;34.78;;
33076;SDS011;38790;51.964;5.924;2022-11-15T07:31:30;72.10;;;35.70;;
33076;SDS011;38790;51.964;5.924;2022-11-15T07:33:56;64.93;;;35.00;;
33076;SDS011;38790;51.964;5.924;2022-11-15T07:36:22;63.25;;;33.47;;
33076;SDS011;38790;51.964;5.924;2022-11-15T07:38:49;66.53;;;33.25;;
33076;SDS011;38790;51.964;5.924;2022-11-15T07:41:16;64.03;;;33.63;;
33076;SDS011;38790;51.964;5.924;2022-11-15T07:43:42;59.42;;;30.80;;
33076;SDS011;38790;51.964;5.924;2022-11-15T07:46:08;51.97;;;29.58;;
33076;SDS011;38790;51.964;5.924;2022-11-15T07:48:38;56.75;;;29.02;;
33076;SDS011;38790;51.964;5.924;2022-11-15T07:51:06;49.28;;;30.30;;
33076;SDS011;38790;51.964;5.924;2022-11-15T07:53:32;65.63;;;29.33;;
33076;SDS011;38790;51.964;5.924;2022-11-15T07:55:58;55.10;;;28.77;;
33076;SDS011;38790;51.964;5.924;2022-11-15T07:58:24;62.72;;;29.00;;
33076;SDS011;38790;51.964;5.924;2022-11-15T08:00:51;48.88;;;27.85;;
33076;SDS011;38790;51.964;5.924;2022-11-15T08:03:17;49.70;;;26.88;;
33076;SDS011;38790;51.964;5.924;2022-11-15T08:05:43;52.58;;;28.17;;
33076;SDS011;38790;51.964;5.924;2022-11-15T08:08:16;53.10;;;28.05;;
33076;SDS011;38790;51.964;5.924;2022-11-15T08:10:42;52.95;;;28.58;;
33076;SDS011;38790;51.964;5.924;2022-11-15T08:13:09;48.72;;;26.52;;
33076;SDS011;38790;51.964;5.924;2022-11-15T08:15:37;56.45;;;28.33;;
33076;SDS011;38790;51.964;5.924;2022-11-15T08:18:04;52.30;;;28.27;;
33076;SDS011;38790;51.964;5.924;2022-11-15T08:20:32;48.38;;;26.75;;
33076;SDS011;38790;51.964;5.924;2022-11-15T08:23:00;51.05;;;28.63;;
33076;SDS011;38790;51.964;5.924;2022-11-15T08:25:28;52.97;;;28.83;;
33076;SDS011;38790;51.964;5.924;2022-11-15T08:27:56;52.30;;;27.95;;
33076;SDS011;38790;51.964;5.924;2022-11-15T08:30:24;45.67;;;28.25;;
33076;SDS011;38790;51.964;5.924;2022-11-15T08:32:51;47.83;;;28.10;;
33076;SDS011;38790;51.964;5.924;2022-11-15T08:35:19;50.25;;;27.80;;
33076;SDS011;38790;51.964;5.924;2022-11-15T08:37:46;52.45;;;28.45;;
33076;SDS011;38790;51.964;5.924;2022-11-15T08:40:12;43.65;;;27.58;;
33076;SDS011;38790;51.964;5.924;2022-11-15T08:42:39;49.15;;;28.88;;
33076;SDS011;38790;51.964;5.924;2022-11-15T08:45:06;50.08;;;28.58;;
33076;SDS011;38790;51.964;5.924;2022-11-15T08:47:34;57.45;;;28.58;;
33076;SDS011;38790;51.964;5.924;2022-11-15T08:50:00;48.17;;;26.98;;
33076;SDS011;38790;51.964;5.924;2022-11-15T08:52:26;43.42;;;26.20;;
33076;SDS011;38790;51.964;5.924;2022-11-15T08:54:52;42.05;;;26.73;;
33076;SDS011;38790;51.964;5.924;2022-11-15T08:57:18;36.95;;;26.05;;
33076;SDS011;38790;51.964;5.924;2022-11-15T08:59:45;38.78;;;26.00;;
33076;SDS011;38790;51.964;5.924;2022-11-15T09:02:12;42.78;;;24.80;;
33076;SDS011;38790;51.964;5.924;2022-11-15T09:04:40;42.60;;;24.25;;
33076;SDS011;38790;51.964;5.924;2022-11-15T09:07:08;40.33;;;25.27;;
33076;SDS011;38790;51.964;5.924;2022-11-15T09:09:35;34.42;;;21.27;;
33076;SDS011;38790;51.964;5.924;2022-11-15T09:12:02;25.58;;;18.80;;
33076;SDS011;38790;51.964;5.924;2022-11-15T09:14:29;32.40;;;18.83;;
33076;SDS011;38790;51.964;5.924;2022-11-15T09:16:55;28.02;;;17.98;;
33076;SDS011;38790;51.964;5.924;2022-11-15T09:19:21;32.47;;;19.42;;
33076;SDS011;38790;51.964;5.924;2022-11-15T09:21:47;28.35;;;18.33;;
33076;SDS011;38790;51.964;5.924;2022-11-15T09:24:14;26.90;;;17.50;;
33076;SDS011;38790;51.964;5.924;2022-11-15T09:26:40;27.30;;;16.63;;
33076;SDS011;38790;51.964;5.924;2022-11-15T09:29:09;26.80;;;15.60;;
33076;SDS011;38790;51.964;5.924;2022-11-15T09:31:35;21.23;;;15.60;;
33076;SDS011;38790;51.964;5.924;2022-11-15T09:34:01;23.85;;;15.77;;
33076;SDS011;38790;51.964;5.924;2022-11-15T09:36:28;23.98;;;15.32;;
33076;SDS011;38790;51.964;5.924;2022-11-15T09:38:54;20.90;;;15.30;;
33076;SDS011;38790;51.964;5.924;2022-11-15T09:41:26;27.85;;;14.75;;
33076;SDS011;38790;51.964;5.924;2022-11-15T09:49:32;25.80;;;14.55;;
33076;SDS011;38790;51.964;5.924;2022-11-15T09:51:58;23.73;;;14.52;;
33076;SDS011;38790;51.964;5.924;2022-11-15T09:54:29;15.65;;;12.75;;
33076;SDS011;38790;51.964;5.924;2022-11-15T09:57:11;27.52;;;14.57;;
33076;SDS011;38790;51.964;5.924;2022-11-15T09:59:43;19.05;;;13.80;;
33076;SDS011;38790;51.964;5.924;2022-11-15T10:05:22;19.45;;;11.38;;
33076;SDS011;38790;51.964;5.924;2022-11-15T10:13:04;16.88;;;9.98;;
33076;SDS011;38790;51.964;5.924;2022-11-15T10:15:33;19.38;;;10.15;;
33076;SDS011;38790;51.964;5.924;2022-11-15T10:21:29;10.05;;;8.00;;
33076;SDS011;38790;51.964;5.924;2022-11-15T10:23:46;19.25;;;7.90;;
33076;SDS011;38790;51.964;5.924;2022-11-15T10:26:14;9.68;;;7.55;;
33076;SDS011;38790;51.964;5.924;2022-11-15T10:28:42;12.40;;;7.88;;
33076;SDS011;38790;51.964;5.924;2022-11-15T10:31:21;12.02;;;6.75;;
33076;SDS011;38790;51.964;5.924;2022-11-15T10:33:49;10.30;;;6.80;;
33076;SDS011;38790;51.964;5.924;2022-11-15T10:36:17;9.43;;;6.03;;
33076;SDS011;38790;51.964;5.924;2022-11-15T10:41:15;7.50;;;5.43;;
33076;SDS011;38790;51.964;5.924;2022-11-15T10:43:42;7.35;;;4.57;;
33076;SDS011;38790;51.964;5.924;2022-11-15T10:46:19;7.32;;;4.45;;
33076;SDS011;38790;51.964;5.924;2022-11-15T10:48:46;8.73;;;4.32;;
33076;SDS011;38790;51.964;5.924;2022-11-15T10:51:20;9.55;;;4.25;;
33076;SDS011;38790;51.964;5.924;2022-11-15T10:53:54;9.85;;;4.32;;
33076;SDS011;38790;51.964;5.924;2022-11-15T10:56:24;9.32;;;4.15;;
33076;SDS011;38790;51.964;5.924;2022-11-15T10:58:57;8.38;;;3.45;;
33076;SDS011;38790;51.964;5.924;2022-11-15T11:01:25;7.78;;;3.47;;
33076;SDS011;38790;51.964;5.924;2022-11-15T11:04:03;9.02;;;3.55;;
33076;SDS011;38790;51.964;5.924;2022-11-15T11:06:50;6.22;;;3.35;;
33076;SDS011;38790;51.964;5.924;2022-11-15T11:09:25;5.95;;;3.20;;
33076;SDS011;38790;51.964;5.924;2022-11-15T11:12:01;8.60;;;3.28;;
33076;SDS011;38790;51.964;5.924;2022-11-15T11:14:33;6.35;;;3.50;;
33076;SDS011;38790;51.964;5.924;2022-11-15T11:22:22;6.55;;;2.92;;
33076;SDS011;38790;51.964;5.924;2022-11-15T11:27:38;6.53;;;2.30;;
33076;SDS011;38790;51.964;5.924;2022-11-15T11:33:19;10.43;;;2.42;;
33076;SDS011;38790;51.964;5.924;2022-11-15T11:38:51;8.35;;;2.20;;
33076;SDS011;38790;51.964;5.924;2022-11-15T11:57:41;5.20;;;2.00;;
33076;SDS011;38790;51.964;5.924;2022-11-15T12:00:16;5.40;;;2.05;;
33076;SDS011;38790;51.964;5.924;2022-11-15T12:05:38;5.70;;;2.08;;
33076;SDS011;38790;51.964;5.924;2022-11-15T12:08:16;4.22;;;1.70;;
33076;SDS011;38790;51.964;5.924;2022-11-15T12:11:01;6.80;;;1.77;;
33076;SDS011;38790;51.964;5.924;2022-11-15T12:13:40;12.82;;;2.22;;
33076;SDS011;38790;51.964;5.924;2022-11-15T12:16:11;7.38;;;2.30;;
33076;SDS011;38790;51.964;5.924;2022-11-15T12:21:26;6.28;;;2.17;;
33076;SDS011;38790;51.964;5.924;2022-11-15T12:24:34;5.07;;;2.15;;
33076;SDS011;38790;51.964;5.924;2022-11-15T12:32:34;5.60;;;2.10;;
33076;SDS011;38790;51.964;5.924;2022-11-15T12:35:01;10.35;;;1.77;;
33076;SDS011;38790;51.964;5.924;2022-11-15T12:42:42;3.72;;;1.60;;
33076;SDS011;38790;51.964;5.924;2022-11-15T12:45:24;4.35;;;1.48;;
33076;SDS011;38790;51.964;5.924;2022-11-15T12:47:53;6.55;;;1.40;;
33076;SDS011;38790;51.964;5.924;2022-11-15T12:53:29;3.80;;;1.30;;
33076;SDS011;38790;51.964;5.924;2022-11-15T12:58:40;5.15;;;1.20;;
33076;SDS011;38790;51.964;5.924;2022-11-15T13:01:52;4.13;;;1.50;;
33076;SDS011;38790;51.964;5.924;2022-11-15T13:06:48;3.20;;;1.17;;
33076;SDS011;38790;51.964;5.924;2022-11-15T13:12:06;4.13;;;1.27;;
33076;SDS011;38790;51.964;5.924;2022-11-15T13:14:56;4.55;;;1.15;;
33076;SDS011;38790;51.964;5.924;2022-11-15T13:17:25;9.45;;;1.63;;
33076;SDS011;38790;51.964;5.924;2022-11-15T13:30:40;4.13;;;1.30;;
33076;SDS011;38790;51.964;5.924;2022-11-15T13:33:16;7.15;;;1.35;;
33076;SDS011;38790;51.964;5.924;2022-11-15T13:36:07;7.85;;;1.60;;
33076;SDS011;38790;51.964;5.924;2022-11-15T13:38:42;4.50;;;1.50;;
33076;SDS011;38790;51.964;5.924;2022-11-15T13:41:29;3.88;;;1.58;;
33076;SDS011;38790;51.964;5.924;2022-11-15T13:44:00;4.20;;;1.63;;
33076;SDS011;38790;51.964;5.924;2022-11-15T13:46:28;6.68;;;2.00;;
33076;SDS011;38790;51.964;5.924;2022-11-15T13:48:56;11.27;;;2.03;;
33076;SDS011;38790;51.964;5.924;2022-11-15T13:53:59;5.30;;;1.60;;
33076;SDS011;38790;51.964;5.924;2022-11-15T13:56:41;13.23;;;2.25;;
33076;SDS011;38790;51.964;5.924;2022-11-15T13:59:14;8.88;;;1.67;;
33076;SDS011;38790;51.964;5.924;2022-11-15T14:01:49;4.75;;;1.55;;
33076;SDS011;38790;51.964;5.924;2022-11-15T14:04:18;7.78;;;1.65;;
33076;SDS011;38790;51.964;5.924;2022-11-15T14:06:49;4.95;;;1.60;;
33076;SDS011;38790;51.964;5.924;2022-11-15T14:09:32;5.85;;;1.58;;
33076;SDS011;38790;51.964;5.924;2022-11-15T14:12:01;4.63;;;1.90;;
33076;SDS011;38790;51.964;5.924;2022-11-15T14:14:47;5.72;;;1.90;;
33076;SDS011;38790;51.964;5.924;2022-11-15T14:17:20;7.50;;;1.83;;
33076;SDS011;38790;51.964;5.924;2022-11-15T14:19:54;2.53;;;1.45;;
33076;SDS011;38790;51.964;5.924;2022-11-15T14:30:33;6.28;;;1.65;;
33076;SDS011;38790;51.964;5.924;2022-11-15T14:33:00;7.70;;;2.03;;
33076;SDS011;38790;51.964;5.924;2022-11-15T14:35:26;6.28;;;1.67;;
33076;SDS011;38790;51.964;5.924;2022-11-15T14:37:53;5.38;;;1.80;;
33076;SDS011;38790;51.964;5.924;2022-11-15T14:40:20;7.40;;;1.55;;
33076;SDS011;38790;51.964;5.924;2022-11-15T14:42:47;7.38;;;2.03;;
33076;SDS011;38790;51.964;5.924;2022-11-15T14:45:19;3.20;;;1.40;;
33076;SDS011;38790;51.964;5.924;2022-11-15T14:47:47;10.15;;;2.00;;
33076;SDS011;38790;51.964;5.924;2022-11-15T14:50:14;5.28;;;1.67;;
33076;SDS011;38790;51.964;5.924;2022-11-15T14:52:45;5.50;;;1.60;;
33076;SDS011;38790;51.964;5.924;2022-11-15T14:55:18;4.00;;;1.50;;
33076;SDS011;38790;51.964;5.924;2022-11-15T14:57:56;4.22;;;1.55;;
33076;SDS011;38790;51.964;5.924;2022-11-15T15:00:23;3.28;;;1.33;;
33076;SDS011;38790;51.964;5.924;2022-11-15T15:02:51;2.90;;;1.88;;
33076;SDS011;38790;51.964;5.924;2022-11-15T15:05:20;4.63;;;1.45;;
33076;SDS011;38790;51.964;5.924;2022-11-15T15:08:00;9.10;;;1.55;;
33076;SDS011;38790;51.964;5.924;2022-11-15T15:10:28;7.05;;;1.90;;
33076;SDS011;38790;51.964;5.924;2022-11-15T15:12:58;4.03;;;1.60;;
33076;SDS011;38790;51.964;5.924;2022-11-15T15:15:25;9.48;;;2.05;;
33076;SDS011;38790;51.964;5.924;2022-11-15T15:17:56;4.75;;;1.70;;
33076;SDS011;38790;51.964;5.924;2022-11-15T15:20:22;4.07;;;1.88;;
33076;SDS011;38790;51.964;5.924;2022-11-15T15:22:49;3.83;;;1.80;;
33076;SDS011;38790;51.964;5.924;2022-11-15T15:25:28;7.78;;;1.98;;
33076;SDS011;38790;51.964;5.924;2022-11-15T15:27:57;7.95;;;1.83;;
33076;SDS011;38790;51.964;5.924;2022-11-15T15:30:24;4.28;;;1.98;;
33076;SDS011;38790;51.964;5.924;2022-11-15T15:32:51;9.30;;;3.08;;
33076;SDS011;38790;51.964;5.924;2022-11-15T15:35:19;4.78;;;2.10;;
33076;SDS011;38790;51.964;5.924;2022-11-15T15:37:46;6.95;;;2.25;;
33076;SDS011;38790;51.964;5.924;2022-11-15T15:40:15;7.07;;;2.50;;
33076;SDS011;38790;51.964;5.924;2022-11-15T15:42:46;5.18;;;2.17;;
33076;SDS011;38790;51.964;5.924;2022-11-15T15:45:13;7.32;;;2.38;;
33076;SDS011;38790;51.964;5.924;2022-11-15T15:47:40;4.47;;;1.95;;
33076;SDS011;38790;51.964;5.924;2022-11-15T15:52:48;4.10;;;1.90;;
33076;SDS011;38790;51.964;5.924;2022-11-15T15:55:15;6.10;;;2.65;;
33076;SDS011;38790;51.964;5.924;2022-11-15T15:57:42;4.93;;;2.38;;
33076;SDS011;38790;51.964;5.924;2022-11-15T16:00:08;5.75;;;2.17;;
33076;SDS011;38790;51.964;5.924;2022-11-15T16:02:35;4.63;;;2.15;;
33076;SDS011;38790;51.964;5.924;2022-11-15T16:05:01;4.30;;;1.88;;
33076;SDS011;38790;51.964;5.924;2022-11-15T16:07:28;7.20;;;2.65;;
33076;SDS011;38790;51.964;5.924;2022-11-15T16:09:54;5.95;;;1.92;;
33076;SDS011;38790;51.964;5.924;2022-11-15T16:12:30;6.82;;;2.72;;
33076;SDS011;38790;51.964;5.924;2022-11-15T16:14:58;5.78;;;2.13;;
33076;SDS011;38790;51.964;5.924;2022-11-15T16:18:08;12.25;;;2.55;;
33076;SDS011;38790;51.964;5.924;2022-11-15T16:20:36;5.43;;;2.20;;
33076;SDS011;38790;51.964;5.924;2022-11-15T16:23:08;4.40;;;1.88;;
33076;SDS011;38790;51.964;5.924;2022-11-15T16:25:46;7.30;;;1.98;;
33076;SDS011;38790;51.964;5.924;2022-11-15T16:28:18;7.32;;;1.88;;
33076;SDS011;38790;51.964;5.924;2022-11-15T16:30:48;7.95;;;2.25;;
33076;SDS011;38790;51.964;5.924;2022-11-15T16:33:23;11.48;;;2.25;;
33076;SDS011;38790;51.964;5.924;2022-11-15T16:35:50;6.97;;;2.35;;
33076;SDS011;38790;51.964;5.924;2022-11-15T16:38:16;7.30;;;2.30;;
33076;SDS011;38790;51.964;5.924;2022-11-15T16:40:43;8.15;;;2.08;;
33076;SDS011;38790;51.964;5.924;2022-11-15T16:43:09;6.22;;;2.00;;
33076;SDS011;38790;51.964;5.924;2022-11-15T16:45:36;9.63;;;2.10;;
33076;SDS011;38790;51.964;5.924;2022-11-15T16:48:03;6.07;;;2.33;;
33076;SDS011;38790;51.964;5.924;2022-11-15T16:50:30;3.08;;;2.10;;
33076;SDS011;38790;51.964;5.924;2022-11-15T16:53:04;6.90;;;2.33;;
33076;SDS011;38790;51.964;5.924;2022-11-15T16:55:30;4.40;;;2.28;;
33076;SDS011;38790;51.964;5.924;2022-11-15T16:57:56;7.07;;;2.83;;
33076;SDS011;38790;51.964;5.924;2022-11-15T17:00:23;6.82;;;2.17;;
33076;SDS011;38790;51.964;5.924;2022-11-15T17:02:50;6.03;;;2.45;;